This is the latest recevied weather packets stored in our database for station/object MB7UKB-10. If no packets are shown the sender has not sent any weather packets the latest 1 day(s).
| Time | Temp. | Humidity | Pressure | Rain* | Wind** | Luminosity | Snow |
|---|---|---|---|---|---|---|---|
| 1777992609 | 16.67° C | 52% | 1012.1 hPa | 0 mm | 0.45 m/s, 15° | - | - |
| 1777989009 | 16.11° C | 55% | 1012.1 hPa | 0 mm | 0.45 m/s, 354° | - | - |
| 1777985409 | 16.11° C | 53% | 1012.5 hPa | 0 mm | 0 m/s | - | - |
| 1777983609 | 16.11° C | 53% | 1012.5 hPa | 0 mm | 0.89 m/s, 163° | - | - |
| 1777981808 | 16.67° C | 54% | 1012.7 hPa | 0 mm | 0 m/s | - | - |
| 1777980009 | 15.56° C | 58% | 1012.8 hPa | 0 mm | 0.89 m/s, 117° | - | - |
| 1777978209 | 13.33° C | 67% | 1013.1 hPa | 0 mm | 0.89 m/s, 105° | - | - |
| 1777976409 | 13.89° C | 67% | 1013.2 hPa | 0 mm | 0.89 m/s, 140° | - | - |
| 1777974609 | 13.33° C | 69% | 1013.3 hPa | 0 mm | 0.89 m/s, 293° | - | - |
| 1777972809 | 12.78° C | 73% | 1013.2 hPa | 0 mm | 0.89 m/s, 200° | - | - |
| 1777971009 | 12.78° C | 74% | 1013.5 hPa | 0 mm | 0.89 m/s, 122° | - | - |
| 1777969209 | 12.22° C | 80% | 1013.5 hPa | 0 mm | 0 m/s | - | - |
| 1777967408 | 11.67° C | 81% | 1013.5 hPa | 0 mm | 0 m/s | - | - |
| 1777963808 | 11.67° C | 83% | 1013.9 hPa | 0 mm | 0.45 m/s, 96° | - | - |
| 1777962008 | 10.56° C | 85% | 1013.7 hPa | 0 mm | 0.45 m/s, 146° | - | - |
| 1777960208 | 10.56° C | 86% | 1013.8 hPa | 0 mm | 0.89 m/s, 196° | - | - |
| 1777958409 | 10.56° C | 86% | 1013.8 hPa | 0 mm | 0.89 m/s, 153° | - | - |
| 1777956609 | 10° C | 87% | 1013.8 hPa | 0 mm | 0 m/s | - | - |
| 1777954809 | 10° C | 86% | 1013.8 hPa | 0 mm | 0 m/s | - | - |
| 1777953008 | 10° C | 86% | 1014 hPa | 0 mm | 0 m/s | - | - |
* Rain latest hour (hover to see other rain measurements)
** Current wind speed in m/s (hover to see current wind gust speed)